sensor_id;sensor_type;location;lat;lon;timestamp;P1;durP1;ratioP1;P2;durP2;ratioP2
5295;SDS011;2670;42.720;23.336;2023-12-20T00:00:14;380.10;;;160.67;;
5295;SDS011;2670;42.720;23.336;2023-12-20T00:02:40;351.60;;;149.90;;
5295;SDS011;2670;42.720;23.336;2023-12-20T00:05:11;365.53;;;154.27;;
5295;SDS011;2670;42.720;23.336;2023-12-20T00:07:38;349.73;;;151.50;;
5295;SDS011;2670;42.720;23.336;2023-12-20T00:10:06;304.00;;;127.47;;
5295;SDS011;2670;42.720;23.336;2023-12-20T00:12:33;274.80;;;120.97;;
5295;SDS011;2670;42.720;23.336;2023-12-20T00:14:59;247.47;;;105.60;;
5295;SDS011;2670;42.720;23.336;2023-12-20T00:17:26;219.70;;;100.57;;
5295;SDS011;2670;42.720;23.336;2023-12-20T00:19:52;230.07;;;100.97;;
5295;SDS011;2670;42.720;23.336;2023-12-20T00:22:18;211.73;;;91.37;;
5295;SDS011;2670;42.720;23.336;2023-12-20T00:24:45;201.50;;;87.77;;
5295;SDS011;2670;42.720;23.336;2023-12-20T00:27:13;176.80;;;80.73;;
5295;SDS011;2670;42.720;23.336;2023-12-20T00:29:39;176.70;;;65.77;;
5295;SDS011;2670;42.720;23.336;2023-12-20T00:32:08;149.07;;;61.30;;
5295;SDS011;2670;42.720;23.336;2023-12-20T00:34:34;170.60;;;66.87;;
5295;SDS011;2670;42.720;23.336;2023-12-20T00:37:00;229.83;;;73.47;;
5295;SDS011;2670;42.720;23.336;2023-12-20T00:39:27;243.37;;;76.57;;
5295;SDS011;2670;42.720;23.336;2023-12-20T00:41:53;278.90;;;77.20;;
5295;SDS011;2670;42.720;23.336;2023-12-20T00:44:21;264.73;;;80.70;;
5295;SDS011;2670;42.720;23.336;2023-12-20T00:46:48;286.90;;;83.47;;
5295;SDS011;2670;42.720;23.336;2023-12-20T00:49:14;221.77;;;72.33;;
5295;SDS011;2670;42.720;23.336;2023-12-20T00:51:41;237.70;;;73.07;;
5295;SDS011;2670;42.720;23.336;2023-12-20T00:54:07;231.03;;;78.50;;
5295;SDS011;2670;42.720;23.336;2023-12-20T00:56:34;246.80;;;81.37;;
5295;SDS011;2670;42.720;23.336;2023-12-20T00:59:00;254.13;;;78.37;;
5295;SDS011;2670;42.720;23.336;2023-12-20T01:01:28;246.60;;;82.87;;
5295;SDS011;2670;42.720;23.336;2023-12-20T01:03:58;234.07;;;82.73;;
5295;SDS011;2670;42.720;23.336;2023-12-20T01:06:24;200.37;;;79.00;;
5295;SDS011;2670;42.720;23.336;2023-12-20T01:08:51;327.33;;;89.40;;
5295;SDS011;2670;42.720;23.336;2023-12-20T01:11:17;303.10;;;89.70;;
5295;SDS011;2670;42.720;23.336;2023-12-20T01:13:43;273.90;;;88.97;;
5295;SDS011;2670;42.720;23.336;2023-12-20T01:16:10;316.43;;;90.00;;
5295;SDS011;2670;42.720;23.336;2023-12-20T01:18:38;254.80;;;86.80;;
5295;SDS011;2670;42.720;23.336;2023-12-20T01:21:05;257.93;;;89.80;;
5295;SDS011;2670;42.720;23.336;2023-12-20T01:23:31;293.10;;;92.50;;
5295;SDS011;2670;42.720;23.336;2023-12-20T01:25:58;250.53;;;85.80;;
5295;SDS011;2670;42.720;23.336;2023-12-20T01:28:25;259.93;;;88.73;;
5295;SDS011;2670;42.720;23.336;2023-12-20T01:30:51;246.80;;;84.47;;
5295;SDS011;2670;42.720;23.336;2023-12-20T01:33:18;278.60;;;81.10;;
5295;SDS011;2670;42.720;23.336;2023-12-20T01:35:45;257.83;;;77.20;;
5295;SDS011;2670;42.720;23.336;2023-12-20T01:38:12;228.10;;;74.80;;
5295;SDS011;2670;42.720;23.336;2023-12-20T01:40:38;233.87;;;75.70;;
5295;SDS011;2670;42.720;23.336;2023-12-20T01:43:06;225.20;;;67.17;;
5295;SDS011;2670;42.720;23.336;2023-12-20T01:45:34;189.37;;;67.60;;
5295;SDS011;2670;42.720;23.336;2023-12-20T01:48:00;181.83;;;55.57;;
5295;SDS011;2670;42.720;23.336;2023-12-20T01:50:28;122.13;;;46.80;;
5295;SDS011;2670;42.720;23.336;2023-12-20T01:52:56;181.50;;;53.27;;
5295;SDS011;2670;42.720;23.336;2023-12-20T01:55:24;150.67;;;50.47;;
5295;SDS011;2670;42.720;23.336;2023-12-20T01:57:51;196.23;;;48.17;;
5295;SDS011;2670;42.720;23.336;2023-12-20T02:00:17;125.57;;;46.60;;
5295;SDS011;2670;42.720;23.336;2023-12-20T02:02:48;138.20;;;44.60;;
5295;SDS011;2670;42.720;23.336;2023-12-20T02:05:14;123.53;;;46.93;;
5295;SDS011;2670;42.720;23.336;2023-12-20T02:07:41;134.80;;;45.00;;
5295;SDS011;2670;42.720;23.336;2023-12-20T02:10:09;149.30;;;43.20;;
5295;SDS011;2670;42.720;23.336;2023-12-20T02:12:36;158.43;;;41.03;;
5295;SDS011;2670;42.720;23.336;2023-12-20T02:15:03;109.17;;;38.83;;
5295;SDS011;2670;42.720;23.336;2023-12-20T02:17:30;128.43;;;37.20;;
5295;SDS011;2670;42.720;23.336;2023-12-20T02:19:57;148.47;;;37.60;;
5295;SDS011;2670;42.720;23.336;2023-12-20T02:22:25;165.23;;;37.27;;
5295;SDS011;2670;42.720;23.336;2023-12-20T02:24:52;135.33;;;34.80;;
5295;SDS011;2670;42.720;23.336;2023-12-20T02:27:18;132.20;;;32.70;;
5295;SDS011;2670;42.720;23.336;2023-12-20T02:29:45;165.67;;;33.30;;
5295;SDS011;2670;42.720;23.336;2023-12-20T02:32:13;97.57;;;33.27;;
5295;SDS011;2670;42.720;23.336;2023-12-20T02:34:39;181.23;;;30.90;;
5295;SDS011;2670;42.720;23.336;2023-12-20T02:37:05;127.87;;;30.93;;
5295;SDS011;2670;42.720;23.336;2023-12-20T02:39:33;127.67;;;34.07;;
5295;SDS011;2670;42.720;23.336;2023-12-20T02:42:00;64.83;;;28.27;;
5295;SDS011;2670;42.720;23.336;2023-12-20T02:44:26;164.57;;;30.47;;
5295;SDS011;2670;42.720;23.336;2023-12-20T02:46:52;103.43;;;29.80;;
5295;SDS011;2670;42.720;23.336;2023-12-20T02:49:19;147.77;;;30.37;;
5295;SDS011;2670;42.720;23.336;2023-12-20T02:51:45;160.63;;;35.37;;
5295;SDS011;2670;42.720;23.336;2023-12-20T02:54:12;96.37;;;31.17;;
5295;SDS011;2670;42.720;23.336;2023-12-20T02:56:40;124.70;;;30.17;;
5295;SDS011;2670;42.720;23.336;2023-12-20T02:59:07;125.30;;;30.53;;
5295;SDS011;2670;42.720;23.336;2023-12-20T03:01:33;182.50;;;33.50;;
5295;SDS011;2670;42.720;23.336;2023-12-20T03:04:00;137.87;;;31.17;;
5295;SDS011;2670;42.720;23.336;2023-12-20T03:06:27;116.30;;;31.23;;
5295;SDS011;2670;42.720;23.336;2023-12-20T03:08:53;98.33;;;28.80;;
5295;SDS011;2670;42.720;23.336;2023-12-20T03:11:19;166.63;;;30.90;;
5295;SDS011;2670;42.720;23.336;2023-12-20T03:13:47;120.83;;;30.20;;
5295;SDS011;2670;42.720;23.336;2023-12-20T03:16:14;131.10;;;30.03;;
5295;SDS011;2670;42.720;23.336;2023-12-20T03:18:41;91.40;;;31.97;;
5295;SDS011;2670;42.720;23.336;2023-12-20T03:21:08;107.77;;;31.40;;
5295;SDS011;2670;42.720;23.336;2023-12-20T03:23:34;119.73;;;34.00;;
5295;SDS011;2670;42.720;23.336;2023-12-20T03:26:01;89.20;;;33.27;;
5295;SDS011;2670;42.720;23.336;2023-12-20T03:28:27;156.50;;;31.37;;
5295;SDS011;2670;42.720;23.336;2023-12-20T03:30:55;132.73;;;28.20;;
5295;SDS011;2670;42.720;23.336;2023-12-20T03:33:21;127.73;;;29.17;;
5295;SDS011;2670;42.720;23.336;2023-12-20T03:35:48;179.93;;;29.50;;
5295;SDS011;2670;42.720;23.336;2023-12-20T03:38:14;79.80;;;27.00;;
5295;SDS011;2670;42.720;23.336;2023-12-20T03:40:41;96.43;;;28.30;;
5295;SDS011;2670;42.720;23.336;2023-12-20T03:43:07;95.17;;;27.47;;
5295;SDS011;2670;42.720;23.336;2023-12-20T03:45:33;165.07;;;32.50;;
5295;SDS011;2670;42.720;23.336;2023-12-20T03:48:01;86.30;;;30.90;;
5295;SDS011;2670;42.720;23.336;2023-12-20T03:50:28;151.13;;;32.80;;
5295;SDS011;2670;42.720;23.336;2023-12-20T03:52:55;99.20;;;30.70;;
5295;SDS011;2670;42.720;23.336;2023-12-20T03:55:21;131.80;;;29.67;;
5295;SDS011;2670;42.720;23.336;2023-12-20T03:57:47;84.27;;;29.57;;
5295;SDS011;2670;42.720;23.336;2023-12-20T04:00:14;160.47;;;33.03;;
5295;SDS011;2670;42.720;23.336;2023-12-20T04:02:41;86.53;;;31.27;;
5295;SDS011;2670;42.720;23.336;2023-12-20T04:05:09;157.93;;;35.30;;
5295;SDS011;2670;42.720;23.336;2023-12-20T04:07:34;106.77;;;31.80;;
5295;SDS011;2670;42.720;23.336;2023-12-20T04:10:01;90.20;;;29.67;;
5295;SDS011;2670;42.720;23.336;2023-12-20T04:12:28;104.77;;;32.50;;
5295;SDS011;2670;42.720;23.336;2023-12-20T04:14:55;110.40;;;30.63;;
5295;SDS011;2670;42.720;23.336;2023-12-20T04:17:22;123.87;;;32.13;;
5295;SDS011;2670;42.720;23.336;2023-12-20T04:19:48;103.20;;;32.07;;
5295;SDS011;2670;42.720;23.336;2023-12-20T04:22:16;101.30;;;33.90;;
5295;SDS011;2670;42.720;23.336;2023-12-20T04:24:43;94.97;;;29.77;;
5295;SDS011;2670;42.720;23.336;2023-12-20T04:27:09;99.50;;;31.17;;
5295;SDS011;2670;42.720;23.336;2023-12-20T04:29:36;93.97;;;33.17;;
5295;SDS011;2670;42.720;23.336;2023-12-20T04:32:03;101.23;;;33.50;;
5295;SDS011;2670;42.720;23.336;2023-12-20T04:34:29;101.40;;;35.50;;
5295;SDS011;2670;42.720;23.336;2023-12-20T04:36:55;92.03;;;31.07;;
5295;SDS011;2670;42.720;23.336;2023-12-20T04:39:23;119.73;;;40.40;;
5295;SDS011;2670;42.720;23.336;2023-12-20T04:41:50;105.27;;;35.10;;
5295;SDS011;2670;42.720;23.336;2023-12-20T04:44:16;175.93;;;39.43;;
5295;SDS011;2670;42.720;23.336;2023-12-20T04:46:43;145.77;;;38.97;;
5295;SDS011;2670;42.720;23.336;2023-12-20T04:49:09;133.27;;;39.53;;
5295;SDS011;2670;42.720;23.336;2023-12-20T04:51:36;164.20;;;44.80;;
5295;SDS011;2670;42.720;23.336;2023-12-20T04:54:03;224.27;;;47.87;;
5295;SDS011;2670;42.720;23.336;2023-12-20T04:56:31;174.67;;;43.80;;
5295;SDS011;2670;42.720;23.336;2023-12-20T04:58:57;143.93;;;41.50;;
5295;SDS011;2670;42.720;23.336;2023-12-20T05:01:24;144.80;;;42.67;;
5295;SDS011;2670;42.720;23.336;2023-12-20T05:03:50;118.37;;;43.13;;
5295;SDS011;2670;42.720;23.336;2023-12-20T05:06:16;137.40;;;40.63;;
5295;SDS011;2670;42.720;23.336;2023-12-20T05:08:43;110.27;;;39.13;;
5295;SDS011;2670;42.720;23.336;2023-12-20T05:11:09;127.40;;;38.30;;
5295;SDS011;2670;42.720;23.336;2023-12-20T05:13:39;121.47;;;37.87;;
5295;SDS011;2670;42.720;23.336;2023-12-20T05:16:06;153.10;;;38.80;;
5295;SDS011;2670;42.720;23.336;2023-12-20T05:18:32;139.67;;;40.30;;
5295;SDS011;2670;42.720;23.336;2023-12-20T05:20:59;209.57;;;39.73;;
5295;SDS011;2670;42.720;23.336;2023-12-20T05:23:25;205.50;;;43.40;;
5295;SDS011;2670;42.720;23.336;2023-12-20T05:25:51;185.40;;;41.73;;
5295;SDS011;2670;42.720;23.336;2023-12-20T05:28:18;178.77;;;42.20;;
5295;SDS011;2670;42.720;23.336;2023-12-20T05:30:46;221.77;;;41.63;;
5295;SDS011;2670;42.720;23.336;2023-12-20T05:33:12;147.33;;;38.07;;
5295;SDS011;2670;42.720;23.336;2023-12-20T05:35:39;289.63;;;40.53;;
5295;SDS011;2670;42.720;23.336;2023-12-20T05:38:05;199.43;;;39.20;;
5295;SDS011;2670;42.720;23.336;2023-12-20T05:40:32;180.50;;;40.70;;
5295;SDS011;2670;42.720;23.336;2023-12-20T05:42:58;246.83;;;39.30;;
5295;SDS011;2670;42.720;23.336;2023-12-20T05:45:25;248.93;;;46.27;;
5295;SDS011;2670;42.720;23.336;2023-12-20T05:47:52;210.93;;;43.07;;
5295;SDS011;2670;42.720;23.336;2023-12-20T05:50:19;229.63;;;46.97;;
5295;SDS011;2670;42.720;23.336;2023-12-20T05:52:46;153.47;;;39.10;;
5295;SDS011;2670;42.720;23.336;2023-12-20T05:55:12;248.23;;;41.93;;
5295;SDS011;2670;42.720;23.336;2023-12-20T05:57:39;331.33;;;45.17;;
5295;SDS011;2670;42.720;23.336;2023-12-20T06:00:07;257.07;;;46.53;;
5295;SDS011;2670;42.720;23.336;2023-12-20T06:02:34;235.03;;;39.53;;
5295;SDS011;2670;42.720;23.336;2023-12-20T06:05:03;253.03;;;41.97;;
5295;SDS011;2670;42.720;23.336;2023-12-20T06:07:30;145.60;;;35.77;;
5295;SDS011;2670;42.720;23.336;2023-12-20T06:09:56;212.57;;;42.40;;
5295;SDS011;2670;42.720;23.336;2023-12-20T06:12:22;175.37;;;44.03;;
5295;SDS011;2670;42.720;23.336;2023-12-20T06:14:49;189.90;;;42.63;;
5295;SDS011;2670;42.720;23.336;2023-12-20T06:17:15;227.67;;;40.53;;
5295;SDS011;2670;42.720;23.336;2023-12-20T06:19:42;232.73;;;46.87;;
5295;SDS011;2670;42.720;23.336;2023-12-20T06:22:11;207.30;;;42.77;;
5295;SDS011;2670;42.720;23.336;2023-12-20T06:24:37;199.87;;;43.60;;
5295;SDS011;2670;42.720;23.336;2023-12-20T06:27:04;274.47;;;46.03;;
5295;SDS011;2670;42.720;23.336;2023-12-20T06:29:29;216.00;;;44.97;;
5295;SDS011;2670;42.720;23.336;2023-12-20T06:31:56;163.50;;;43.53;;
5295;SDS011;2670;42.720;23.336;2023-12-20T06:34:23;180.87;;;44.73;;
5295;SDS011;2670;42.720;23.336;2023-12-20T06:36:49;204.97;;;45.10;;
5295;SDS011;2670;42.720;23.336;2023-12-20T06:39:17;149.60;;;38.90;;
5295;SDS011;2670;42.720;23.336;2023-12-20T06:41:43;174.60;;;40.53;;
5295;SDS011;2670;42.720;23.336;2023-12-20T06:44:11;114.23;;;37.70;;
5295;SDS011;2670;42.720;23.336;2023-12-20T06:46:37;111.27;;;36.63;;
5295;SDS011;2670;42.720;23.336;2023-12-20T06:49:04;100.63;;;33.97;;
5295;SDS011;2670;42.720;23.336;2023-12-20T06:51:30;128.57;;;37.27;;
5295;SDS011;2670;42.720;23.336;2023-12-20T06:53:56;201.53;;;39.67;;
5295;SDS011;2670;42.720;23.336;2023-12-20T06:56:24;160.17;;;38.57;;
5295;SDS011;2670;42.720;23.336;2023-12-20T06:58:51;209.70;;;42.33;;
5295;SDS011;2670;42.720;23.336;2023-12-20T07:01:17;154.80;;;40.10;;
5295;SDS011;2670;42.720;23.336;2023-12-20T07:03:44;207.63;;;45.17;;
5295;SDS011;2670;42.720;23.336;2023-12-20T07:06:10;176.17;;;43.63;;
5295;SDS011;2670;42.720;23.336;2023-12-20T07:08:36;164.50;;;41.57;;
5295;SDS011;2670;42.720;23.336;2023-12-20T07:11:03;224.27;;;42.53;;
5295;SDS011;2670;42.720;23.336;2023-12-20T07:13:31;126.73;;;39.60;;
5295;SDS011;2670;42.720;23.336;2023-12-20T07:15:57;143.97;;;41.60;;
5295;SDS011;2670;42.720;23.336;2023-12-20T07:18:24;150.63;;;45.97;;
5295;SDS011;2670;42.720;23.336;2023-12-20T07:20:50;216.47;;;51.67;;
5295;SDS011;2670;42.720;23.336;2023-12-20T07:23:16;181.53;;;47.67;;
5295;SDS011;2670;42.720;23.336;2023-12-20T07:25:44;143.10;;;54.10;;
5295;SDS011;2670;42.720;23.336;2023-12-20T07:28:11;155.27;;;51.43;;
5295;SDS011;2670;42.720;23.336;2023-12-20T07:33:06;210.17;;;74.63;;
5295;SDS011;2670;42.720;23.336;2023-12-20T07:35:34;191.83;;;56.27;;
5295;SDS011;2670;42.720;23.336;2023-12-20T07:38:00;224.47;;;72.40;;
5295;SDS011;2670;42.720;23.336;2023-12-20T07:40:27;297.60;;;85.40;;
5295;SDS011;2670;42.720;23.336;2023-12-20T07:42:54;141.53;;;47.17;;
5295;SDS011;2670;42.720;23.336;2023-12-20T07:45:20;260.13;;;55.70;;
5295;SDS011;2670;42.720;23.336;2023-12-20T07:47:46;254.37;;;51.70;;
5295;SDS011;2670;42.720;23.336;2023-12-20T07:50:15;177.67;;;52.13;;
5295;SDS011;2670;42.720;23.336;2023-12-20T07:52:42;161.27;;;53.67;;
5295;SDS011;2670;42.720;23.336;2023-12-20T07:55:08;136.80;;;52.57;;
5295;SDS011;2670;42.720;23.336;2023-12-20T07:57:35;203.50;;;59.37;;
5295;SDS011;2670;42.720;23.336;2023-12-20T08:00:02;272.23;;;58.47;;
5295;SDS011;2670;42.720;23.336;2023-12-20T08:02:29;199.40;;;58.90;;
5295;SDS011;2670;42.720;23.336;2023-12-20T08:04:55;180.57;;;56.77;;
5295;SDS011;2670;42.720;23.336;2023-12-20T08:07:23;222.43;;;57.77;;
5295;SDS011;2670;42.720;23.336;2023-12-20T08:09:49;198.17;;;62.30;;
5295;SDS011;2670;42.720;23.336;2023-12-20T08:12:16;171.17;;;59.93;;
5295;SDS011;2670;42.720;23.336;2023-12-20T08:14:43;188.20;;;63.20;;
5295;SDS011;2670;42.720;23.336;2023-12-20T08:17:09;227.20;;;64.77;;
5295;SDS011;2670;42.720;23.336;2023-12-20T08:19:36;183.63;;;65.10;;
5295;SDS011;2670;42.720;23.336;2023-12-20T08:22:02;209.43;;;66.13;;
5295;SDS011;2670;42.720;23.336;2023-12-20T08:24:30;226.57;;;67.13;;
5295;SDS011;2670;42.720;23.336;2023-12-20T08:26:57;166.47;;;62.70;;
5295;SDS011;2670;42.720;23.336;2023-12-20T08:29:23;221.60;;;72.60;;
5295;SDS011;2670;42.720;23.336;2023-12-20T08:31:51;199.80;;;70.27;;
5295;SDS011;2670;42.720;23.336;2023-12-20T08:34:18;222.60;;;75.40;;
5295;SDS011;2670;42.720;23.336;2023-12-20T08:36:44;207.17;;;70.23;;
5295;SDS011;2670;42.720;23.336;2023-12-20T08:39:11;197.63;;;70.67;;
5295;SDS011;2670;42.720;23.336;2023-12-20T08:41:39;267.97;;;69.77;;
5295;SDS011;2670;42.720;23.336;2023-12-20T08:44:05;196.23;;;67.30;;
5295;SDS011;2670;42.720;23.336;2023-12-20T08:46:32;224.23;;;66.20;;
5295;SDS011;2670;42.720;23.336;2023-12-20T08:48:58;167.57;;;60.30;;
5295;SDS011;2670;42.720;23.336;2023-12-20T08:51:25;179.70;;;61.83;;
5295;SDS011;2670;42.720;23.336;2023-12-20T08:53:52;175.00;;;64.77;;
5295;SDS011;2670;42.720;23.336;2023-12-20T08:56:18;196.37;;;61.70;;
5295;SDS011;2670;42.720;23.336;2023-12-20T08:58:46;234.17;;;67.57;;
5295;SDS011;2670;42.720;23.336;2023-12-20T09:01:13;183.47;;;61.77;;
5295;SDS011;2670;42.720;23.336;2023-12-20T09:03:39;180.07;;;62.17;;
5295;SDS011;2670;42.720;23.336;2023-12-20T09:06:06;181.00;;;67.77;;
5295;SDS011;2670;42.720;23.336;2023-12-20T09:08:32;185.60;;;64.53;;
5295;SDS011;2670;42.720;23.336;2023-12-20T09:10:59;183.40;;;68.60;;
5295;SDS011;2670;42.720;23.336;2023-12-20T09:13:25;195.73;;;66.10;;
5295;SDS011;2670;42.720;23.336;2023-12-20T09:15:55;203.50;;;67.40;;
5295;SDS011;2670;42.720;23.336;2023-12-20T09:18:21;185.10;;;64.70;;
5295;SDS011;2670;42.720;23.336;2023-12-20T09:20:47;180.73;;;64.63;;
5295;SDS011;2670;42.720;23.336;2023-12-20T09:23:14;172.67;;;67.27;;
5295;SDS011;2670;42.720;23.336;2023-12-20T09:25:42;193.10;;;68.30;;
5295;SDS011;2670;42.720;23.336;2023-12-20T09:28:08;172.60;;;70.70;;
5295;SDS011;2670;42.720;23.336;2023-12-20T09:30:35;211.90;;;70.70;;
5295;SDS011;2670;42.720;23.336;2023-12-20T09:33:06;200.97;;;72.03;;
5295;SDS011;2670;42.720;23.336;2023-12-20T09:35:33;210.27;;;79.30;;
5295;SDS011;2670;42.720;23.336;2023-12-20T09:37:59;217.33;;;79.20;;
5295;SDS011;2670;42.720;23.336;2023-12-20T09:40:26;219.73;;;74.40;;
5295;SDS011;2670;42.720;23.336;2023-12-20T09:42:55;227.67;;;77.00;;
5295;SDS011;2670;42.720;23.336;2023-12-20T09:45:22;194.67;;;74.10;;
5295;SDS011;2670;42.720;23.336;2023-12-20T09:47:49;203.57;;;73.27;;
5295;SDS011;2670;42.720;23.336;2023-12-20T09:50:17;225.60;;;80.20;;
5295;SDS011;2670;42.720;23.336;2023-12-20T09:52:44;221.23;;;80.23;;
5295;SDS011;2670;42.720;23.336;2023-12-20T09:55:11;202.83;;;75.97;;
5295;SDS011;2670;42.720;23.336;2023-12-20T09:57:38;207.73;;;76.50;;
5295;SDS011;2670;42.720;23.336;2023-12-20T10:00:06;212.27;;;74.13;;
5295;SDS011;2670;42.720;23.336;2023-12-20T10:02:33;194.93;;;64.73;;
5295;SDS011;2670;42.720;23.336;2023-12-20T10:05:00;209.57;;;72.47;;
5295;SDS011;2670;42.720;23.336;2023-12-20T10:07:29;199.83;;;70.03;;
5295;SDS011;2670;42.720;23.336;2023-12-20T10:09:56;222.93;;;74.57;;
5295;SDS011;2670;42.720;23.336;2023-12-20T10:12:22;195.70;;;69.63;;
5295;SDS011;2670;42.720;23.336;2023-12-20T10:14:49;195.60;;;68.17;;
5295;SDS011;2670;42.720;23.336;2023-12-20T10:17:16;174.13;;;63.70;;
5295;SDS011;2670;42.720;23.336;2023-12-20T10:19:43;189.23;;;65.37;;
5295;SDS011;2670;42.720;23.336;2023-12-20T10:22:09;202.90;;;66.57;;
5295;SDS011;2670;42.720;23.336;2023-12-20T10:24:38;185.57;;;68.00;;
5295;SDS011;2670;42.720;23.336;2023-12-20T10:27:06;173.57;;;67.47;;
5295;SDS011;2670;42.720;23.336;2023-12-20T10:29:33;193.70;;;70.07;;
5295;SDS011;2670;42.720;23.336;2023-12-20T10:32:00;174.53;;;62.67;;
5295;SDS011;2670;42.720;23.336;2023-12-20T10:34:46;172.53;;;64.10;;
5295;SDS011;2670;42.720;23.336;2023-12-20T10:37:13;176.43;;;68.83;;
5295;SDS011;2670;42.720;23.336;2023-12-20T10:39:41;186.53;;;69.47;;
5295;SDS011;2670;42.720;23.336;2023-12-20T10:42:08;215.67;;;73.20;;
5295;SDS011;2670;42.720;23.336;2023-12-20T10:44:35;208.93;;;73.27;;
5295;SDS011;2670;42.720;23.336;2023-12-20T10:47:01;236.03;;;73.07;;
5295;SDS011;2670;42.720;23.336;2023-12-20T10:49:28;206.60;;;79.53;;
5295;SDS011;2670;42.720;23.336;2023-12-20T10:51:55;203.93;;;69.73;;
5295;SDS011;2670;42.720;23.336;2023-12-20T10:54:23;226.17;;;78.10;;
5295;SDS011;2670;42.720;23.336;2023-12-20T10:56:51;198.30;;;75.73;;
5295;SDS011;2670;42.720;23.336;2023-12-20T10:59:18;195.13;;;73.60;;
5295;SDS011;2670;42.720;23.336;2023-12-20T11:01:47;175.43;;;64.43;;
5295;SDS011;2670;42.720;23.336;2023-12-20T11:04:15;173.83;;;61.77;;
5295;SDS011;2670;42.720;23.336;2023-12-20T11:06:45;190.60;;;65.27;;
5295;SDS011;2670;42.720;23.336;2023-12-20T11:09:14;171.37;;;66.87;;
5295;SDS011;2670;42.720;23.336;2023-12-20T11:11:47;154.90;;;64.30;;
5295;SDS011;2670;42.720;23.336;2023-12-20T11:14:22;173.70;;;62.20;;
5295;SDS011;2670;42.720;23.336;2023-12-20T11:16:49;158.13;;;61.20;;
5295;SDS011;2670;42.720;23.336;2023-12-20T11:19:16;170.00;;;62.87;;
5295;SDS011;2670;42.720;23.336;2023-12-20T11:21:43;181.23;;;62.40;;
5295;SDS011;2670;42.720;23.336;2023-12-20T11:24:09;197.23;;;62.77;;
5295;SDS011;2670;42.720;23.336;2023-12-20T11:26:36;160.60;;;56.60;;
5295;SDS011;2670;42.720;23.336;2023-12-20T11:31:48;167.80;;;55.90;;
5295;SDS011;2670;42.720;23.336;2023-12-20T11:34:15;167.60;;;57.70;;
5295;SDS011;2670;42.720;23.336;2023-12-20T11:36:43;156.53;;;60.33;;
5295;SDS011;2670;42.720;23.336;2023-12-20T11:39:10;166.73;;;57.90;;
5295;SDS011;2670;42.720;23.336;2023-12-20T11:41:36;174.60;;;57.53;;
5295;SDS011;2670;42.720;23.336;2023-12-20T11:44:04;149.20;;;57.93;;
5295;SDS011;2670;42.720;23.336;2023-12-20T11:46:30;148.43;;;54.40;;
5295;SDS011;2670;42.720;23.336;2023-12-20T11:48:59;159.17;;;53.63;;
5295;SDS011;2670;42.720;23.336;2023-12-20T11:51:26;151.60;;;49.60;;
5295;SDS011;2670;42.720;23.336;2023-12-20T11:53:53;146.83;;;50.30;;
5295;SDS011;2670;42.720;23.336;2023-12-20T11:56:19;158.00;;;53.00;;
5295;SDS011;2670;42.720;23.336;2023-12-20T11:58:46;170.33;;;54.20;;
5295;SDS011;2670;42.720;23.336;2023-12-20T12:01:13;173.77;;;57.03;;
5295;SDS011;2670;42.720;23.336;2023-12-20T12:03:40;184.23;;;59.13;;
5295;SDS011;2670;42.720;23.336;2023-12-20T12:06:09;163.20;;;53.57;;
5295;SDS011;2670;42.720;23.336;2023-12-20T12:08:35;161.50;;;54.70;;
5295;SDS011;2670;42.720;23.336;2023-12-20T12:11:02;177.73;;;56.80;;
5295;SDS011;2670;42.720;23.336;2023-12-20T12:13:28;175.50;;;59.73;;
5295;SDS011;2670;42.720;23.336;2023-12-20T12:15:55;162.13;;;53.23;;
5295;SDS011;2670;42.720;23.336;2023-12-20T12:18:21;184.77;;;55.90;;
5295;SDS011;2670;42.720;23.336;2023-12-20T12:20:48;161.77;;;53.13;;
5295;SDS011;2670;42.720;23.336;2023-12-20T12:23:22;166.90;;;54.77;;
5295;SDS011;2670;42.720;23.336;2023-12-20T12:25:49;201.93;;;60.07;;
5295;SDS011;2670;42.720;23.336;2023-12-20T12:28:15;193.57;;;55.50;;
5295;SDS011;2670;42.720;23.336;2023-12-20T12:30:42;157.73;;;53.90;;
5295;SDS011;2670;42.720;23.336;2023-12-20T12:33:08;152.00;;;49.50;;
5295;SDS011;2670;42.720;23.336;2023-12-20T12:35:35;160.10;;;51.57;;
5295;SDS011;2670;42.720;23.336;2023-12-20T12:38:01;153.00;;;55.50;;
5295;SDS011;2670;42.720;23.336;2023-12-20T12:40:29;141.33;;;52.37;;
5295;SDS011;2670;42.720;23.336;2023-12-20T12:43:00;147.13;;;49.83;;
5295;SDS011;2670;42.720;23.336;2023-12-20T12:45:27;125.40;;;51.17;;
5295;SDS011;2670;42.720;23.336;2023-12-20T12:47:53;149.87;;;53.40;;
5295;SDS011;2670;42.720;23.336;2023-12-20T12:50:20;146.97;;;51.70;;
5295;SDS011;2670;42.720;23.336;2023-12-20T12:52:46;172.47;;;58.87;;
5295;SDS011;2670;42.720;23.336;2023-12-20T12:55:13;188.57;;;54.67;;
5295;SDS011;2670;42.720;23.336;2023-12-20T12:57:41;154.10;;;52.07;;
5295;SDS011;2670;42.720;23.336;2023-12-20T13:00:09;137.27;;;50.47;;
5295;SDS011;2670;42.720;23.336;2023-12-20T13:02:36;151.17;;;51.77;;
5295;SDS011;2670;42.720;23.336;2023-12-20T13:05:07;180.47;;;48.47;;
5295;SDS011;2670;42.720;23.336;2023-12-20T13:07:33;163.73;;;43.10;;
5295;SDS011;2670;42.720;23.336;2023-12-20T13:10:00;194.70;;;47.67;;
5295;SDS011;2670;42.720;23.336;2023-12-20T13:12:27;261.93;;;45.90;;
5295;SDS011;2670;42.720;23.336;2023-12-20T13:14:57;161.33;;;47.80;;
5295;SDS011;2670;42.720;23.336;2023-12-20T13:17:24;261.13;;;50.63;;
5295;SDS011;2670;42.720;23.336;2023-12-20T13:19:50;191.63;;;48.53;;
5295;SDS011;2670;42.720;23.336;2023-12-20T13:22:17;242.10;;;53.53;;
5295;SDS011;2670;42.720;23.336;2023-12-20T13:24:43;152.87;;;50.10;;
5295;SDS011;2670;42.720;23.336;2023-12-20T13:27:10;150.47;;;47.37;;
5295;SDS011;2670;42.720;23.336;2023-12-20T13:29:36;210.53;;;50.10;;
5295;SDS011;2670;42.720;23.336;2023-12-20T13:32:05;226.47;;;56.80;;
5295;SDS011;2670;42.720;23.336;2023-12-20T13:34:31;211.73;;;54.80;;
5295;SDS011;2670;42.720;23.336;2023-12-20T13:36:58;271.53;;;52.30;;
5295;SDS011;2670;42.720;23.336;2023-12-20T13:39:24;247.60;;;48.10;;
5295;SDS011;2670;42.720;23.336;2023-12-20T13:41:50;283.07;;;51.73;;
5295;SDS011;2670;42.720;23.336;2023-12-20T13:44:17;313.13;;;49.97;;
5295;SDS011;2670;42.720;23.336;2023-12-20T13:46:43;410.63;;;52.47;;
5295;SDS011;2670;42.720;23.336;2023-12-20T13:49:12;261.37;;;51.23;;
5295;SDS011;2670;42.720;23.336;2023-12-20T13:51:38;310.87;;;50.10;;
5295;SDS011;2670;42.720;23.336;2023-12-20T13:54:05;234.53;;;44.17;;
5295;SDS011;2670;42.720;23.336;2023-12-20T13:56:31;223.50;;;44.33;;
5295;SDS011;2670;42.720;23.336;2023-12-20T13:58:59;373.20;;;50.33;;
5295;SDS011;2670;42.720;23.336;2023-12-20T14:01:25;328.23;;;48.40;;
5295;SDS011;2670;42.720;23.336;2023-12-20T14:03:52;318.73;;;50.70;;
5295;SDS011;2670;42.720;23.336;2023-12-20T14:06:20;246.57;;;46.70;;
5295;SDS011;2670;42.720;23.336;2023-12-20T14:08:46;311.27;;;51.90;;
5295;SDS011;2670;42.720;23.336;2023-12-20T14:11:13;212.80;;;51.97;;
5295;SDS011;2670;42.720;23.336;2023-12-20T14:13:40;295.77;;;51.70;;
5295;SDS011;2670;42.720;23.336;2023-12-20T14:16:08;294.07;;;48.63;;
5295;SDS011;2670;42.720;23.336;2023-12-20T14:18:35;281.27;;;50.77;;
5295;SDS011;2670;42.720;23.336;2023-12-20T14:21:02;271.93;;;54.40;;
5295;SDS011;2670;42.720;23.336;2023-12-20T14:23:30;305.27;;;62.00;;